Time,TemperatureF,DewpointF,PressureIn,WindDirection,WindDirectionDegrees,WindSpeedMPH,WindSpeedGustMPH,Humidity,HourlyPrecipIn,Conditions,Clouds,dailyrainin,SoftwareType,DateUTC
2013-06-20 00:00:00,55.3,53.6,30.15,North,360,0.0,0.0,94,0.00,,,0.00,Wunderground v.1.15,2013-06-20 04:00:00,
2013-06-20 00:05:00,55.2,53.5,30.16,North,360,0.0,0.0,94,0.00,,,0.00,Wunderground v.1.15,2013-06-20 04:05:00,
2013-06-20 00:10:00,55.0,53.3,30.16,North,360,0.0,0.0,94,0.00,,,0.00,Wunderground v.1.15,2013-06-20 04:10:00,
2013-06-20 00:15:00,54.9,53.2,30.16,North,360,0.0,0.0,94,0.00,,,0.00,Wunderground v.1.15,2013-06-20 04:15:00,
2013-06-20 00:20:00,54.8,53.4,30.16,North,360,0.0,0.0,95,0.00,,,0.00,Wunderground v.1.15,2013-06-20 04:20:00,
2013-06-20 00:30:00,54.6,53.2,30.16,North,360,0.0,0.0,95,0.00,,,0.00,Wunderground v.1.15,2013-06-20 04:30:00,
2013-06-20 00:40:00,54.3,52.9,30.16,North,360,0.0,0.0,95,0.00,,,0.00,Wunderground v.1.15,2013-06-20 04:40:00,
2013-06-20 00:45:00,54.2,52.8,30.16,North,360,0.0,0.0,95,0.00,,,0.00,Wunderground v.1.15,2013-06-20 04:45:00,
2013-06-20 00:50:00,54.1,52.7,30.16,North,360,0.0,0.0,95,0.00,,,0.00,Wunderground v.1.15,2013-06-20 04:50:00,
2013-06-20 01:00:00,53.9,52.5,30.16,North,360,0.0,0.0,95,0.00,,,0.00,Wunderground v.1.15,2013-06-20 05:00:00,
2013-06-20 01:05:00,53.8,52.7,30.16,North,360,0.0,0.0,96,0.00,,,0.00,Wunderground v.1.15,2013-06-20 05:05:00,
2013-06-20 01:10:00,53.7,52.6,30.17,North,360,0.0,0.0,96,0.00,,,0.00,Wunderground v.1.15,2013-06-20 05:10:00,
2013-06-20 01:20:00,53.6,52.5,30.17,North,360,0.0,0.0,96,0.00,,,0.00,Wunderground v.1.15,2013-06-20 05:20:00,
2013-06-20 01:25:00,53.5,52.4,30.17,North,360,0.0,0.0,96,0.00,,,0.00,Wunderground v.1.15,2013-06-20 05:25:00,
2013-06-20 01:35:00,53.3,52.2,30.17,North,360,0.0,0.0,96,0.00,,,0.00,Wunderground v.1.15,2013-06-20 05:35:00,
2013-06-20 01:45:00,53.2,52.1,30.18,North,360,0.0,0.0,96,0.00,,,0.00,Wunderground v.1.15,2013-06-20 05:45:00,
2013-06-20 01:50:00,53.1,52.0,30.18,North,360,0.0,0.0,96,0.00,,,0.00,Wunderground v.1.15,2013-06-20 05:50:00,
2013-06-20 02:00:00,53.0,52.2,30.18,North,360,0.0,0.0,97,0.00,,,0.00,Wunderground v.1.15,2013-06-20 06:00:00,
2013-06-20 02:10:00,52.8,52.0,30.18,North,360,0.0,0.0,97,0.00,,,0.00,Wunderground v.1.15,2013-06-20 06:10:00,
2013-06-20 02:15:00,52.7,51.9,30.18,North,360,0.0,0.0,97,0.00,,,0.00,Wunderground v.1.15,2013-06-20 06:15:00,
2013-06-20 02:25:00,52.6,51.8,30.17,North,360,0.0,0.0,97,0.00,,,0.00,Wunderground v.1.15,2013-06-20 06:25:00,
2013-06-20 02:30:00,52.5,51.7,30.17,North,360,0.0,0.0,97,0.00,,,0.00,Wunderground v.1.15,2013-06-20 06:30:00,
2013-06-20 02:40:00,52.4,51.6,30.17,North,360,0.0,0.0,97,0.00,,,0.00,Wunderground v.1.15,2013-06-20 06:40:00,
2013-06-20 02:45:00,52.3,51.5,30.17,North,360,0.0,0.0,97,0.00,,,0.00,Wunderground v.1.15,2013-06-20 06:45:00,
2013-06-20 02:55:00,52.2,51.4,30.17,North,360,0.0,0.0,97,0.00,,,0.00,Wunderground v.1.15,2013-06-20 06:55:00,
2013-06-20 03:00:00,52.1,51.3,30.18,North,360,0.0,0.0,97,0.00,,,0.00,Wunderground v.1.15,2013-06-20 07:00:00,
2013-06-20 03:10:00,52.0,51.2,30.18,North,360,0.0,0.0,97,0.00,,,0.00,Wunderground v.1.15,2013-06-20 07:10:00,
2013-06-20 03:20:00,51.9,51.4,30.18,North,360,0.0,0.0,98,0.00,,,0.00,Wunderground v.1.15,2013-06-20 07:20:00,
2013-06-20 03:30:00,51.8,51.3,30.18,North,360,0.0,0.0,98,0.00,,,0.00,Wunderground v.1.15,2013-06-20 07:30:00,
2013-06-20 03:35:00,51.8,51.3,30.18,North,360,0.0,0.0,98,0.00,,,0.00,Wunderground v.1.15,2013-06-20 07:35:00,
2013-06-20 03:45:00,51.7,51.2,30.18,North,360,0.0,0.0,98,0.00,,,0.00,Wunderground v.1.15,2013-06-20 07:45:00,
2013-06-20 03:50:00,51.7,51.2,30.19,North,360,0.0,0.0,98,0.00,,,0.00,Wunderground v.1.15,2013-06-20 07:50:00,
2013-06-20 04:00:00,51.6,51.1,30.19,North,360,0.0,0.0,98,0.00,,,0.00,Wunderground v.1.15,2013-06-20 08:00:00,
2013-06-20 04:10:00,51.5,51.0,30.19,North,360,0.0,0.0,98,0.00,,,0.00,Wunderground v.1.15,2013-06-20 08:10:00,
2013-06-20 04:15:00,51.4,50.9,30.19,North,360,0.0,0.0,98,0.00,,,0.00,Wunderground v.1.15,2013-06-20 08:15:00,
2013-06-20 04:25:00,51.3,50.8,30.19,North,360,0.0,0.0,98,0.00,,,0.00,Wunderground v.1.15,2013-06-20 08:25:00,
2013-06-20 04:35:00,51.2,50.7,30.19,North,360,0.0,0.0,98,0.00,,,0.00,Wunderground v.1.15,2013-06-20 08:35:00,
2013-06-20 04:40:00,51.1,50.6,30.19,North,360,0.0,0.0,98,0.00,,,0.00,Wunderground v.1.15,2013-06-20 08:40:00,
2013-06-20 04:50:00,51.0,50.5,30.19,North,360,0.0,0.0,98,0.00,,,0.00,Wunderground v.1.15,2013-06-20 08:50:00,
2013-06-20 04:55:00,51.0,50.5,30.20,North,360,0.0,0.0,98,0.00,,,0.00,Wunderground v.1.15,2013-06-20 08:55:00,
2013-06-20 05:00:00,50.9,50.4,30.20,North,360,0.0,0.0,98,0.00,,,0.00,Wunderground v.1.15,2013-06-20 09:00:00,
2013-06-20 05:10:00,50.8,50.3,30.20,North,360,0.0,0.0,98,0.00,,,0.00,Wunderground v.1.15,2013-06-20 09:10:00,
2013-06-20 05:20:00,50.7,50.2,30.20,North,360,0.0,0.0,98,0.00,,,0.00,Wunderground v.1.15,2013-06-20 09:20:00,
2013-06-20 05:30:00,50.5,50.0,30.20,North,360,0.0,0.0,98,0.00,,,0.00,Wunderground v.1.15,2013-06-20 09:30:00,
2013-06-20 05:35:00,50.5,50.0,30.21,North,360,0.0,0.0,98,0.00,,,0.00,Wunderground v.1.15,2013-06-20 09:35:00,
2013-06-20 05:45:00,50.5,50.2,30.21,North,360,0.0,0.0,99,0.00,,,0.00,Wunderground v.1.15,2013-06-20 09:45:00,
2013-06-20 05:55:00,50.5,50.2,30.21,North,360,0.0,0.0,99,0.00,,,0.00,Wunderground v.1.15,2013-06-20 09:55:00,
2013-06-20 06:00:00,50.5,50.2,30.21,North,360,0.0,0.0,99,0.00,,,0.00,Wunderground v.1.15,2013-06-20 10:00:00,
2013-06-20 06:10:00,50.5,50.2,30.22,North,360,0.0,0.0,99,0.00,,,0.00,Wunderground v.1.15,2013-06-20 10:10:00,
2013-06-20 06:15:00,50.6,50.3,30.22,North,360,0.0,0.0,99,0.00,,,0.00,Wunderground v.1.15,2013-06-20 10:15:00,
2013-06-20 06:25:00,50.8,50.5,30.23,North,360,0.0,0.0,99,0.00,,,0.00,Wunderground v.1.15,2013-06-20 10:25:00,
2013-06-20 06:35:00,51.1,50.8,30.23,North,360,0.0,0.0,99,0.00,,,0.00,Wunderground v.1.15,2013-06-20 10:35:00,
2013-06-20 06:40:00,51.3,51.3,30.23,North,360,0.0,0.0,100,0.00,,,0.00,Wunderground v.1.15,2013-06-20 10:40:00,
2013-06-20 06:50:00,51.7,51.7,30.23,North,360,0.0,0.0,100,0.00,,,0.00,Wunderground v.1.15,2013-06-20 10:50:00,
2013-06-20 06:55:00,51.8,51.8,30.23,North,360,0.0,0.0,100,0.00,,,0.00,Wunderground v.1.15,2013-06-20 10:55:00,
2013-06-20 07:00:00,52.0,52.0,30.23,North,360,0.0,0.0,100,0.00,,,0.00,Wunderground v.1.15,2013-06-20 11:00:00,
2013-06-20 07:10:00,52.4,52.4,30.24,North,360,0.0,0.0,100,0.00,,,0.00,Wunderground v.1.15,2013-06-20 11:10:00,
2013-06-20 07:15:00,52.9,52.9,30.24,North,360,0.0,0.0,100,0.00,,,0.00,Wunderground v.1.15,2013-06-20 11:15:00,
2013-06-20 07:25:00,53.6,53.6,30.24,North,360,0.0,0.0,100,0.00,,,0.00,Wunderground v.1.15,2013-06-20 11:25:00,
2013-06-20 07:30:00,53.9,53.9,30.24,North,360,0.0,0.0,100,0.00,,,0.00,Wunderground v.1.15,2013-06-20 11:30:00,
2013-06-20 07:40:00,54.7,54.7,30.24,North,360,0.0,0.0,100,0.00,,,0.00,Wunderground v.1.15,2013-06-20 11:40:00,
2013-06-20 07:50:00,55.2,55.2,30.24,North,360,0.0,0.0,100,0.00,,,0.00,Wunderground v.1.15,2013-06-20 11:50:00,
2013-06-20 07:55:00,55.5,55.5,30.24,North,360,0.0,1.0,100,0.00,,,0.00,Wunderground v.1.15,2013-06-20 11:55:00,
2013-06-20 08:00:00,55.8,55.8,30.24,North,360,0.0,0.0,100,0.00,,,0.00,Wunderground v.1.15,2013-06-20 12:00:00,
2013-06-20 08:10:00,56.6,56.6,30.24,North,360,0.0,0.0,100,0.00,,,0.00,Wunderground v.1.15,2013-06-20 12:10:00,
2013-06-20 08:20:00,57.2,57.2,30.24,SW,214,0.0,0.0,100,0.00,,,0.00,Wunderground v.1.15,2013-06-20 12:20:00,
2013-06-20 08:30:00,57.9,57.9,30.24,SW,215,1.0,1.0,100,0.00,,,0.00,Wunderground v.1.15,2013-06-20 12:30:00,
2013-06-20 08:40:00,58.8,58.0,30.24,WSW,254,1.0,2.0,97,0.00,,,0.00,Wunderground v.1.15,2013-06-20 12:40:00,
2013-06-20 08:45:00,59.4,58.0,30.24,WSW,254,0.0,2.0,95,0.00,,,0.00,Wunderground v.1.15,2013-06-20 12:45:00,
2013-06-20 08:55:00,60.5,58.2,30.24,WSW,250,1.0,1.0,92,0.00,,,0.00,Wunderground v.1.15,2013-06-20 12:55:00,
2013-06-20 09:00:00,61.4,59.1,30.24,WSW,251,1.0,1.0,92,0.00,,,0.00,Wunderground v.1.15,2013-06-20 13:00:00,
2013-06-20 09:10:00,62.5,58.6,30.24,WNW,285,1.0,1.0,87,0.00,,,0.00,Wunderground v.1.15,2013-06-20 13:10:00,
2013-06-20 09:20:00,63.6,58.7,30.24,SW,234,1.0,1.0,84,0.00,,,0.00,Wunderground v.1.15,2013-06-20 13:20:00,
2013-06-20 09:25:00,64.2,58.2,30.24,SW,224,1.0,2.0,81,0.00,,,0.00,Wunderground v.1.15,2013-06-20 13:25:00,
2013-06-20 09:35:00,64.9,58.6,30.24,SW,227,0.0,1.0,80,0.00,,,0.00,Wunderground v.1.15,2013-06-20 13:35:00,
2013-06-20 09:40:00,65.3,58.6,30.24,SW,227,1.0,1.0,79,0.00,,,0.00,Wunderground v.1.15,2013-06-20 13:40:00,
2013-06-20 09:50:00,66.0,58.9,30.24,SSW,198,0.0,0.0,78,0.00,,,0.00,Wunderground v.1.15,2013-06-20 13:50:00,
2013-06-20 09:55:00,66.3,58.9,30.24,SSW,198,0.0,0.0,77,0.00,,,0.00,Wunderground v.1.15,2013-06-20 13:55:00,
2013-06-20 10:00:00,66.7,58.1,30.24,SSW,198,0.0,0.0,74,0.00,,,0.00,Wunderground v.1.15,2013-06-20 14:00:00,
2013-06-20 10:10:00,67.5,60.0,30.24,SE,126,0.0,0.0,77,0.00,,,0.00,Wunderground v.1.15,2013-06-20 14:10:00,
2013-06-20 10:15:00,67.9,58.9,30.24,SE,128,1.0,1.0,73,0.00,,,0.00,Wunderground v.1.15,2013-06-20 14:15:00,
2013-06-20 10:25:00,68.9,59.5,30.24,SSE,156,1.0,1.0,72,0.00,,,0.00,Wunderground v.1.15,2013-06-20 14:25:00,
2013-06-20 10:30:00,69.6,60.2,30.24,SSE,155,1.0,1.0,72,0.00,,,0.00,Wunderground v.1.15,2013-06-20 14:30:00,
2013-06-20 10:40:00,71.0,61.5,30.24,South,180,1.0,2.0,72,0.00,,,0.00,Wunderground v.1.15,2013-06-20 14:40:00,
2013-06-20 10:45:00,71.6,60.9,30.24,SE,137,1.0,2.0,69,0.00,,,0.00,Wunderground v.1.15,2013-06-20 14:45:00,
2013-06-20 10:55:00,72.5,60.5,30.24,SSW,209,0.0,1.0,66,0.00,,,0.00,Wunderground v.1.15,2013-06-20 14:55:00,
2013-06-20 11:00:00,73.0,62.2,30.25,WSW,247,1.0,1.0,69,0.00,,,0.00,Wunderground v.1.15,2013-06-20 15:00:00,
2013-06-20 11:10:00,73.8,60.9,30.25,SW,236,1.0,1.0,64,0.00,,,0.00,Wunderground v.1.15,2013-06-20 15:10:00,
2013-06-20 11:20:00,74.7,59.9,30.25,ESE,115,1.0,1.0,60,0.00,,,0.00,Wunderground v.1.15,2013-06-20 15:20:00,
2013-06-20 11:25:00,74.9,60.1,30.25,SW,231,1.0,2.0,60,0.00,,,0.00,Wunderground v.1.15,2013-06-20 15:25:00,
2013-06-20 11:35:00,75.1,58.3,30.25,West,265,2.0,2.0,56,0.00,,,0.00,Wunderground v.1.15,2013-06-20 15:35:00,
2013-06-20 11:45:00,75.6,60.3,30.25,WSW,240,2.0,4.0,59,0.00,,,0.00,Wunderground v.1.15,2013-06-20 15:45:00,
2013-06-20 11:50:00,75.8,57.4,30.25,South,178,2.0,2.0,53,0.00,,,0.00,Wunderground v.1.15,2013-06-20 15:50:00,
2013-06-20 12:00:00,75.9,59.1,30.24,WSW,245,2.0,3.0,56,0.00,,,0.00,Wunderground v.1.15,2013-06-20 16:00:00,
2013-06-20 12:10:00,75.9,58.1,30.24,SSE,157,2.0,2.0,54,0.00,,,0.00,Wunderground v.1.15,2013-06-20 16:10:00,
2013-06-20 12:15:00,75.8,55.8,30.24,SSW,201,1.0,2.0,50,0.00,,,0.00,Wunderground v.1.15,2013-06-20 16:15:00,
2013-06-20 12:25:00,76.1,58.2,30.24,West,272,1.0,4.0,54,0.00,,,0.00,Wunderground v.1.15,2013-06-20 16:25:00,
2013-06-20 12:30:00,76.5,58.1,30.24,West,279,1.0,1.0,53,0.00,,,0.00,Wunderground v.1.15,2013-06-20 16:30:00,
2013-06-20 12:40:00,77.1,57.0,30.24,SSW,208,1.0,1.0,50,0.00,,,0.00,Wunderground v.1.15,2013-06-20 16:40:00,
2013-06-20 12:45:00,77.5,60.6,30.24,WSW,246,1.0,1.0,56,0.00,,,0.00,Wunderground v.1.15,2013-06-20 16:45:00,
2013-06-20 12:55:00,77.9,57.8,30.24,West,261,1.0,1.0,50,0.00,,,0.00,Wunderground v.1.15,2013-06-20 16:55:00,
2013-06-20 13:00:00,77.7,60.2,30.24,WSW,237,1.0,1.0,55,0.00,,,0.00,Wunderground v.1.15,2013-06-20 17:00:00,
2013-06-20 13:10:00,77.9,56.6,30.24,SW,232,2.0,2.0,48,0.00,,,0.00,Wunderground v.1.15,2013-06-20 17:10:00,
2013-06-20 13:20:00,78.2,58.6,30.23,ESE,111,2.0,2.0,51,0.00,,,0.00,Wunderground v.1.15,2013-06-20 17:20:00,
2013-06-20 13:30:00,78.6,59.5,30.23,SW,224,1.0,4.0,52,0.00,,,0.00,Wunderground v.1.15,2013-06-20 17:30:00,
2013-06-20 13:35:00,78.8,53.1,30.23,NNW,345,1.0,4.0,41,0.00,,,0.00,Wunderground v.1.15,2013-06-20 17:35:00,
2013-06-20 13:45:00,78.8,56.9,30.23,WNW,292,1.0,2.0,47,0.00,,,0.00,Wunderground v.1.15,2013-06-20 17:45:00,
2013-06-20 13:50:00,78.9,53.9,30.23,WSW,246,2.0,4.0,42,0.00,,,0.00,Wunderground v.1.15,2013-06-20 17:50:00,
2013-06-20 14:00:00,79.4,55.6,30.22,West,267,1.0,1.0,44,0.00,,,0.00,Wunderground v.1.15,2013-06-20 18:00:00,
2013-06-20 14:10:00,79.7,57.1,30.22,WSW,244,0.0,3.0,46,0.00,,,0.00,Wunderground v.1.15,2013-06-20 18:10:00,
2013-06-20 14:15:00,79.9,58.5,30.22,SW,221,1.0,3.0,48,0.00,,,0.00,Wunderground v.1.15,2013-06-20 18:15:00,
2013-06-20 14:25:00,79.7,59.4,30.22,WSW,238,2.0,2.0,50,0.00,,,0.00,Wunderground v.1.15,2013-06-20 18:25:00,
2013-06-20 14:35:00,79.8,55.3,30.21,SW,215,1.0,2.0,43,0.00,,,0.00,Wunderground v.1.15,2013-06-20 18:35:00,
2013-06-20 14:45:00,79.7,57.7,30.21,West,277,2.0,6.0,47,0.00,,,0.00,Wunderground v.1.15,2013-06-20 18:45:00,
2013-06-20 14:50:00,79.5,58.1,30.21,SE,146,2.0,2.0,48,0.00,,,0.00,Wunderground v.1.15,2013-06-20 18:50:00,
2013-06-20 15:00:00,78.9,57.0,30.21,West,279,1.0,2.0,47,0.00,,,0.00,Wunderground v.1.15,2013-06-20 19:00:00,
2013-06-20 15:10:00,78.2,58.0,30.21,SSW,193,2.0,2.0,50,0.00,,,0.00,Wunderground v.1.15,2013-06-20 19:10:00,
2013-06-20 15:15:00,78.1,60.6,30.21,SW,223,2.0,2.0,55,0.00,,,0.00,Wunderground v.1.15,2013-06-20 19:15:00,
2013-06-20 15:20:00,78.3,59.2,30.21,SW,217,1.0,1.0,52,0.00,,,0.00,Wunderground v.1.15,2013-06-20 19:20:00,
2013-06-20 15:30:00,78.3,60.8,30.21,SW,226,1.0,1.0,55,0.00,,,0.00,Wunderground v.1.15,2013-06-20 19:30:00,
2013-06-20 15:40:00,77.4,61.9,30.21,SW,223,0.0,1.0,59,0.00,,,0.00,Wunderground v.1.15,2013-06-20 19:40:00,
2013-06-20 15:45:00,77.7,61.7,30.21,SW,227,1.0,1.0,58,0.00,,,0.00,Wunderground v.1.15,2013-06-20 19:45:00,
2013-06-20 15:55:00,77.6,62.1,30.21,SSW,197,1.0,2.0,59,0.00,,,0.00,Wunderground v.1.15,2013-06-20 19:55:00,
2013-06-20 16:00:00,77.7,61.7,30.21,SSE,164,2.0,2.0,58,0.00,,,0.00,Wunderground v.1.15,2013-06-20 20:00:00,
2013-06-20 16:10:00,77.6,61.7,30.20,SW,230,2.0,3.0,58,0.00,,,0.00,Wunderground v.1.15,2013-06-20 20:10:00,
2013-06-20 16:20:00,77.0,60.6,30.21,WSW,251,1.0,1.0,57,0.00,,,0.00,Wunderground v.1.15,2013-06-20 20:20:00,
2013-06-20 16:25:00,76.4,61.0,30.20,East,94,1.0,1.0,59,0.00,,,0.00,Wunderground v.1.15,2013-06-20 20:25:00,
2013-06-20 16:35:00,75.8,61.4,30.20,SSE,155,1.0,1.0,61,0.00,,,0.00,Wunderground v.1.15,2013-06-20 20:35:00,
2013-06-20 16:40:00,75.8,61.4,30.20,ENE,77,1.0,3.0,61,0.00,,,0.00,Wunderground v.1.15,2013-06-20 20:40:00,
2013-06-20 16:50:00,75.6,61.2,30.20,SW,234,2.0,4.0,61,0.00,,,0.00,Wunderground v.1.15,2013-06-20 20:50:00,
2013-06-20 17:00:00,74.8,60.4,30.20,SW,236,1.0,1.0,61,0.00,,,0.00,Wunderground v.1.15,2013-06-20 21:00:00,
2013-06-20 17:10:00,74.6,59.8,30.20,SSW,200,1.0,2.0,60,0.00,,,0.00,Wunderground v.1.15,2013-06-20 21:10:00,
2013-06-20 17:20:00,74.9,60.1,30.20,SW,224,1.0,1.0,60,0.00,,,0.00,Wunderground v.1.15,2013-06-20 21:20:00,
2013-06-20 17:30:00,74.8,60.9,30.20,SW,234,1.0,1.0,62,0.00,,,0.00,Wunderground v.1.15,2013-06-20 21:30:00,
2013-06-20 17:40:00,74.6,60.3,30.20,SW,214,1.0,2.0,61,0.00,,,0.00,Wunderground v.1.15,2013-06-20 21:40:00,
2013-06-20 17:45:00,74.3,60.0,30.20,SSE,152,1.0,3.0,61,0.00,,,0.00,Wunderground v.1.15,2013-06-20 21:45:00,
2013-06-20 17:55:00,74.1,61.6,30.20,WSW,246,1.0,1.0,65,0.00,,,0.00,Wunderground v.1.15,2013-06-20 21:55:00,
2013-06-20 18:00:00,73.9,62.2,30.20,South,172,1.0,2.0,67,0.00,,,0.00,Wunderground v.1.15,2013-06-20 22:00:00,
2013-06-20 18:10:00,73.5,59.2,30.20,SE,140,2.0,2.0,61,0.00,,,0.00,Wunderground v.1.15,2013-06-20 22:10:00,
2013-06-20 18:20:00,73.1,60.2,30.20,East,101,1.0,1.0,64,0.00,,,0.00,Wunderground v.1.15,2013-06-20 22:20:00,
2013-06-20 18:25:00,72.9,60.0,30.21,SW,224,1.0,1.0,64,0.00,,,0.00,Wunderground v.1.15,2013-06-20 22:25:00,
2013-06-20 18:35:00,72.6,59.7,30.21,WSW,247,1.0,1.0,64,0.00,,,0.00,Wunderground v.1.15,2013-06-20 22:35:00,
2013-06-20 18:40:00,72.4,59.5,30.21,SW,217,1.0,4.0,64,0.00,,,0.00,Wunderground v.1.15,2013-06-20 22:40:00,
2013-06-20 18:50:00,72.2,58.5,30.21,SW,215,1.0,1.0,62,0.00,,,0.00,Wunderground v.1.15,2013-06-20 22:50:00,
2013-06-20 19:00:00,71.9,57.7,30.21,South,180,1.0,3.0,61,0.00,,,0.00,Wunderground v.1.15,2013-06-20 23:00:00,
2013-06-20 19:10:00,71.5,56.9,30.21,ENE,64,2.0,3.0,60,0.00,,,0.00,Wunderground v.1.15,2013-06-20 23:10:00,
2013-06-20 19:15:00,71.3,58.9,30.21,ENE,76,2.0,3.0,65,0.00,,,0.00,Wunderground v.1.15,2013-06-20 23:15:00,
2013-06-20 19:25:00,70.9,59.0,30.21,South,190,0.0,1.0,66,0.00,,,0.00,Wunderground v.1.15,2013-06-20 23:25:00,
2013-06-20 19:30:00,70.6,58.3,30.22,ENE,77,0.0,0.0,65,0.00,,,0.00,Wunderground v.1.15,2013-06-20 23:30:00,
2013-06-20 19:40:00,70.0,58.5,30.22,South,179,0.0,0.0,67,0.00,,,0.00,Wunderground v.1.15,2013-06-20 23:40:00,
2013-06-20 19:45:00,69.7,57.8,30.22,SSE,159,0.0,0.0,66,0.00,,,0.00,Wunderground v.1.15,2013-06-20 23:45:00,
2013-06-20 19:55:00,69.3,58.3,30.22,SSW,211,0.0,0.0,68,0.00,,,0.00,Wunderground v.1.15,2013-06-20 23:55:00,
2013-06-20 20:00:00,69.0,58.8,30.22,SSW,211,0.0,0.0,70,0.00,,,0.00,Wunderground v.1.15,2013-06-21 00:00:00,
2013-06-20 20:10:00,68.5,58.3,30.22,SSW,193,0.0,0.0,70,0.00,,,0.00,Wunderground v.1.15,2013-06-21 00:10:00,
2013-06-20 20:20:00,68.0,57.8,30.22,SW,219,0.0,0.0,70,0.00,,,0.00,Wunderground v.1.15,2013-06-21 00:20:00,
2013-06-20 20:30:00,67.4,57.7,30.22,SW,234,0.0,0.0,71,0.00,,,0.00,Wunderground v.1.15,2013-06-21 00:30:00,
2013-06-20 20:35:00,67.1,57.4,30.22,SW,234,0.0,0.0,71,0.00,,,0.00,Wunderground v.1.15,2013-06-21 00:35:00,
2013-06-20 20:40:00,66.9,56.8,30.22,ESE,117,0.0,0.0,70,0.00,,,0.00,Wunderground v.1.15,2013-06-21 00:40:00,
2013-06-20 20:50:00,66.4,57.1,30.22,SE,146,0.0,0.0,72,0.00,,,0.00,Wunderground v.1.15,2013-06-21 00:50:00,
2013-06-20 21:00:00,65.9,55.8,30.22,SW,223,0.0,0.0,70,0.00,,,0.00,Wunderground v.1.15,2013-06-21 01:00:00,
2013-06-20 21:10:00,65.6,57.1,30.22,SW,223,0.0,0.0,74,0.00,,,0.00,Wunderground v.1.15,2013-06-21 01:10:00,
2013-06-20 21:15:00,65.4,56.5,30.22,SE,144,0.0,0.0,73,0.00,,,0.00,Wunderground v.1.15,2013-06-21 01:15:00,
2013-06-20 21:25:00,65.0,57.2,30.23,SE,144,0.0,0.0,76,0.00,,,0.00,Wunderground v.1.15,2013-06-21 01:25:00,
2013-06-20 21:35:00,64.6,56.5,30.23,SSE,159,0.0,0.0,75,0.00,,,0.00,Wunderground v.1.15,2013-06-21 01:35:00,
2013-06-20 21:40:00,64.3,56.9,30.23,SSE,159,0.0,0.0,77,0.00,,,0.00,Wunderground v.1.15,2013-06-21 01:40:00,
2013-06-20 21:50:00,63.8,56.4,30.23,SSE,159,0.0,0.0,77,0.00,,,0.00,Wunderground v.1.15,2013-06-21 01:50:00,
2013-06-20 22:00:00,63.4,55.7,30.24,SSE,159,0.0,0.0,76,0.00,,,0.00,Wunderground v.1.15,2013-06-21 02:00:00,
2013-06-20 22:10:00,63.0,56.0,30.23,SSE,159,0.0,0.0,78,0.00,,,0.00,Wunderground v.1.15,2013-06-21 02:10:00,
2013-06-20 22:15:00,62.8,55.8,30.23,SSE,159,0.0,0.0,78,0.00,,,0.00,Wunderground v.1.15,2013-06-21 02:15:00,
2013-06-20 22:25:00,62.4,55.8,30.24,SSE,159,0.0,0.0,79,0.00,,,0.00,Wunderground v.1.15,2013-06-21 02:25:00,
2013-06-20 22:35:00,62.0,55.4,30.24,SSE,159,0.0,0.0,79,0.00,,,0.00,Wunderground v.1.15,2013-06-21 02:35:00,
2013-06-20 22:45:00,61.6,55.7,30.24,SSE,159,0.0,0.0,81,0.00,,,0.00,Wunderground v.1.15,2013-06-21 02:45:00,
2013-06-20 22:55:00,61.2,55.7,30.24,SSE,159,0.0,0.0,82,0.00,,,0.00,Wunderground v.1.15,2013-06-21 02:55:00,
2013-06-20 23:00:00,61.1,55.9,30.24,SSE,159,0.0,0.0,83,0.00,,,0.00,Wunderground v.1.15,2013-06-21 03:00:00,
2013-06-20 23:10:00,60.7,55.8,30.24,SSE,159,0.0,0.0,84,0.00,,,0.00,Wunderground v.1.15,2013-06-21 03:10:00,
2013-06-20 23:20:00,60.4,55.5,30.24,SSE,159,0.0,0.0,84,0.00,,,0.00,Wunderground v.1.15,2013-06-21 03:20:00,
2013-06-20 23:30:00,60.1,55.6,30.24,SSE,159,0.0,0.0,85,0.00,,,0.00,Wunderground v.1.15,2013-06-21 03:30:00,
2013-06-20 23:35:00,59.9,55.4,30.24,SSE,159,0.0,0.0,85,0.00,,,0.00,Wunderground v.1.15,2013-06-21 03:35:00,
2013-06-20 23:45:00,59.6,55.4,30.24,SSE,159,0.0,0.0,86,0.00,,,0.00,Wunderground v.1.15,2013-06-21 03:45:00,
2013-06-20 23:50:00,59.5,55.6,30.24,SSE,159,0.0,0.0,87,0.00,,,0.00,Wunderground v.1.15,2013-06-21 03:50:00,